Airfield :
LOGIN :

Register | Disclaimer

   EN    FR    IT 

 










Legend :    VFR   Marginal VFR   IFR   Intensive IFR   Very Intensive IFR
Visi :
Ceiling :
>= 8 km
>= 3000ft
5 to 8 km
1000 to 3000 ft
1500m to 5 km
500 to 1000 ft
800 to 1500m
200 to 500 ft
< 800m
< 200 ft
Symbols :   Thunderstorms  Fog  Heavy snow  Heavy precipitations  Wind > 20 kt
SIGMETs :     Misc.  Thunderstorms  Icing  Turbulence  Mountain Waves  Volcanic Ashes







- Airport Elevation : 74 ft
- IATA code : EIN


EHEH - Eindhoven

CURRENT METAR :
  • 191525Z AUTO 24012KT 210V290 9999 BKN290 24/12 Q1016 BLU 22014KT CAVOK

EXPIRED METARs :
  • 191455Z AUTO 21016KT 180V260 9999 FEW310 25/12 Q1016 BLU 22014KT CAVOK
  • 191425Z AUTO 24014KT 210V280 9999 NCD 26/12 Q1015 BLU 22014KT CAVOK
  • 191355Z AUTO 22015KT 170V260 9999 OVC290 25/12 Q1015 BLU 22014KT CAVOK
  • 191325Z AUTO 20015KT 180V250 9999 BKN390 25/12 Q1016 BLU 22014KT CAVOK
  • 191255Z AUTO 24014KT 200V280 9999 FEW390 26/13 Q1016 BLU 24014KT 9999 SCT040 SCT260
  • 191225Z AUTO 22015KT 180V240 9999 NCD 25/13 Q1016 BLU 24014KT 9999 SCT040 SCT260

TAF TAF EHEH
Valid from the 19 at 12:00 until the 20 at 18:00 UTC


191109Z 1912/2018 24014KT 9999 SCT040 SCT250
BECMG 1917/1920 22006KT
BECMG 2007/2009 23014KT
BECMG 2016/2018 21006KT
No reported NOTAMs for that airfield.



MET'MAP, your aeronautical weather chart ! - Copyright ORBIFLY December 2007 - Disclaimer

ORBIFLY MET'MAP TEAM :

Programming & Development : Alexandra Zaïnal
Concept & Development : Baudouin d'Aumeries
Co-Development & Prog : Marc-Olivier Méhu
Technical & hardware support : Manuel Goepfert

Contact : metmap@orbifly.com




SOURCES & CREDITS :

   NOAA